sensor_id;sensor_type;location;lat;lon;timestamp;temperature;humidity
9808;DHT22;4943;52.550;13.462;2023-05-19T00:00:20;12.40;93.60
9808;DHT22;4943;52.550;13.462;2023-05-19T00:02:49;12.30;93.80
9808;DHT22;4943;52.550;13.462;2023-05-19T00:05:18;12.30;93.90
9808;DHT22;4943;52.550;13.462;2023-05-19T00:07:50;12.20;93.90
9808;DHT22;4943;52.550;13.462;2023-05-19T00:10:19;12.20;93.90
9808;DHT22;4943;52.550;13.462;2023-05-19T00:12:47;12.10;93.90
9808;DHT22;4943;52.550;13.462;2023-05-19T00:15:19;12.10;94.00
9808;DHT22;4943;52.550;13.462;2023-05-19T00:17:47;12.00;94.00
9808;DHT22;4943;52.550;13.462;2023-05-19T00:20:15;12.00;94.30
9808;DHT22;4943;52.550;13.462;2023-05-19T00:22:43;12.00;94.00
9808;DHT22;4943;52.550;13.462;2023-05-19T00:25:12;11.90;94.00
9808;DHT22;4943;52.550;13.462;2023-05-19T00:27:40;11.90;94.10
9808;DHT22;4943;52.550;13.462;2023-05-19T00:30:09;11.90;93.90
9808;DHT22;4943;52.550;13.462;2023-05-19T00:32:37;11.90;93.80
9808;DHT22;4943;52.550;13.462;2023-05-19T00:35:06;12.00;93.80
9808;DHT22;4943;52.550;13.462;2023-05-19T00:37:34;12.00;93.80
9808;DHT22;4943;52.550;13.462;2023-05-19T00:40:03;12.00;93.60
9808;DHT22;4943;52.550;13.462;2023-05-19T00:42:33;12.00;93.60
9808;DHT22;4943;52.550;13.462;2023-05-19T00:45:01;12.00;93.60
9808;DHT22;4943;52.550;13.462;2023-05-19T00:47:29;12.00;93.60
9808;DHT22;4943;52.550;13.462;2023-05-19T00:49:58;12.00;93.50
9808;DHT22;4943;52.550;13.462;2023-05-19T00:52:26;12.00;93.60
9808;DHT22;4943;52.550;13.462;2023-05-19T00:54:55;11.90;93.60
9808;DHT22;4943;52.550;13.462;2023-05-19T00:57:23;11.90;93.80
9808;DHT22;4943;52.550;13.462;2023-05-19T00:59:54;11.80;93.80
9808;DHT22;4943;52.550;13.462;2023-05-19T01:02:22;11.80;93.90
9808;DHT22;4943;52.550;13.462;2023-05-19T01:04:50;11.70;93.80
9808;DHT22;4943;52.550;13.462;2023-05-19T01:07:19;11.70;94.00
9808;DHT22;4943;52.550;13.462;2023-05-19T01:09:49;11.70;94.00
9808;DHT22;4943;52.550;13.462;2023-05-19T01:12:17;11.70;93.90
9808;DHT22;4943;52.550;13.462;2023-05-19T01:14:45;11.70;94.20
9808;DHT22;4943;52.550;13.462;2023-05-19T01:17:22;11.60;94.00
9808;DHT22;4943;52.550;13.462;2023-05-19T01:19:59;11.60;93.90
9808;DHT22;4943;52.550;13.462;2023-05-19T01:22:40;11.60;93.90
9808;DHT22;4943;52.550;13.462;2023-05-19T01:25:43;11.60;94.00
9808;DHT22;4943;52.550;13.462;2023-05-19T01:28:52;11.50;93.90
9808;DHT22;4943;52.550;13.462;2023-05-19T01:31:24;11.50;93.90
9808;DHT22;4943;52.550;13.462;2023-05-19T01:33:53;11.50;94.00
9808;DHT22;4943;52.550;13.462;2023-05-19T01:36:22;11.40;94.00
9808;DHT22;4943;52.550;13.462;2023-05-19T01:38:55;11.40;94.00
9808;DHT22;4943;52.550;13.462;2023-05-19T01:41:23;11.40;94.10
9808;DHT22;4943;52.550;13.462;2023-05-19T01:43:51;11.30;94.00
9808;DHT22;4943;52.550;13.462;2023-05-19T01:46:20;11.30;94.00
9808;DHT22;4943;52.550;13.462;2023-05-19T01:48:51;11.30;94.10
9808;DHT22;4943;52.550;13.462;2023-05-19T01:51:20;11.30;94.00
9808;DHT22;4943;52.550;13.462;2023-05-19T01:53:48;11.30;94.00
9808;DHT22;4943;52.550;13.462;2023-05-19T01:56:21;11.30;94.40
9808;DHT22;4943;52.550;13.462;2023-05-19T01:58:58;11.30;94.20
9808;DHT22;4943;52.550;13.462;2023-05-19T02:01:35;11.20;94.10
9808;DHT22;4943;52.550;13.462;2023-05-19T02:04:15;11.20;94.30
9808;DHT22;4943;52.550;13.462;2023-05-19T02:06:51;11.20;94.20
9808;DHT22;4943;52.550;13.462;2023-05-19T02:09:24;11.10;94.20
9808;DHT22;4943;52.550;13.462;2023-05-19T02:11:55;11.10;94.40
9808;DHT22;4943;52.550;13.462;2023-05-19T02:14:31;11.10;94.40
9808;DHT22;4943;52.550;13.462;2023-05-19T02:17:01;11.10;94.50
9808;DHT22;4943;52.550;13.462;2023-05-19T02:19:38;11.00;94.50
9808;DHT22;4943;52.550;13.462;2023-05-19T02:22:06;11.00;94.60
9808;DHT22;4943;52.550;13.462;2023-05-19T02:24:34;10.90;94.60
9808;DHT22;4943;52.550;13.462;2023-05-19T02:27:03;10.90;94.70
9808;DHT22;4943;52.550;13.462;2023-05-19T02:29:31;10.90;94.80
9808;DHT22;4943;52.550;13.462;2023-05-19T02:32:00;10.80;94.80
9808;DHT22;4943;52.550;13.462;2023-05-19T02:34:28;10.80;94.90
9808;DHT22;4943;52.550;13.462;2023-05-19T02:36:57;10.80;94.90
9808;DHT22;4943;52.550;13.462;2023-05-19T02:39:26;10.80;95.00
9808;DHT22;4943;52.550;13.462;2023-05-19T02:42:00;10.80;95.10
9808;DHT22;4943;52.550;13.462;2023-05-19T02:44:28;10.80;95.10
9808;DHT22;4943;52.550;13.462;2023-05-19T02:46:56;10.80;95.20
9808;DHT22;4943;52.550;13.462;2023-05-19T02:49:24;10.80;95.20
9808;DHT22;4943;52.550;13.462;2023-05-19T02:51:52;10.80;95.20
9808;DHT22;4943;52.550;13.462;2023-05-19T02:54:22;10.80;95.10
9808;DHT22;4943;52.550;13.462;2023-05-19T02:56:50;10.80;95.10
9808;DHT22;4943;52.550;13.462;2023-05-19T02:59:18;10.80;95.00
9808;DHT22;4943;52.550;13.462;2023-05-19T03:01:46;10.90;95.30
9808;DHT22;4943;52.550;13.462;2023-05-19T03:04:14;10.90;95.00
9808;DHT22;4943;52.550;13.462;2023-05-19T03:06:42;10.90;94.90
9808;DHT22;4943;52.550;13.462;2023-05-19T03:09:10;10.90;94.90
9808;DHT22;4943;52.550;13.462;2023-05-19T03:11:40;10.90;94.90
9808;DHT22;4943;52.550;13.462;2023-05-19T03:14:08;10.90;94.90
9808;DHT22;4943;52.550;13.462;2023-05-19T03:16:37;10.90;95.00
9808;DHT22;4943;52.550;13.462;2023-05-19T03:19:07;11.00;95.30
9808;DHT22;4943;52.550;13.462;2023-05-19T03:21:35;10.90;95.00
9808;DHT22;4943;52.550;13.462;2023-05-19T03:24:04;10.90;94.70
9808;DHT22;4943;52.550;13.462;2023-05-19T03:26:32;11.00;95.00
9808;DHT22;4943;52.550;13.462;2023-05-19T03:29:01;10.90;95.10
9808;DHT22;4943;52.550;13.462;2023-05-19T03:31:30;10.90;95.20
9808;DHT22;4943;52.550;13.462;2023-05-19T03:33:58;10.90;95.20
9808;DHT22;4943;52.550;13.462;2023-05-19T03:36:26;10.90;95.20
9808;DHT22;4943;52.550;13.462;2023-05-19T03:38:57;11.00;95.30
9808;DHT22;4943;52.550;13.462;2023-05-19T03:41:25;11.00;95.30
9808;DHT22;4943;52.550;13.462;2023-05-19T03:43:53;11.00;95.30
9808;DHT22;4943;52.550;13.462;2023-05-19T03:46:23;11.00;95.40
9808;DHT22;4943;52.550;13.462;2023-05-19T03:48:51;10.90;95.40
9808;DHT22;4943;52.550;13.462;2023-05-19T03:51:19;10.90;95.70
9808;DHT22;4943;52.550;13.462;2023-05-19T03:53:47;10.90;95.50
9808;DHT22;4943;52.550;13.462;2023-05-19T03:56:15;11.00;95.50
9808;DHT22;4943;52.550;13.462;2023-05-19T03:58:43;10.90;95.60
9808;DHT22;4943;52.550;13.462;2023-05-19T04:01:12;11.00;95.60
9808;DHT22;4943;52.550;13.462;2023-05-19T04:03:42;11.00;95.50
9808;DHT22;4943;52.550;13.462;2023-05-19T04:06:10;11.10;95.60
9808;DHT22;4943;52.550;13.462;2023-05-19T04:08:38;11.20;95.60
9808;DHT22;4943;52.550;13.462;2023-05-19T04:11:06;11.30;95.60
9808;DHT22;4943;52.550;13.462;2023-05-19T04:13:34;11.40;95.60
9808;DHT22;4943;52.550;13.462;2023-05-19T04:16:02;11.60;95.50
9808;DHT22;4943;52.550;13.462;2023-05-19T04:18:31;11.70;95.50
9808;DHT22;4943;52.550;13.462;2023-05-19T04:21:00;11.80;95.50
9808;DHT22;4943;52.550;13.462;2023-05-19T04:23:28;11.90;95.40
9808;DHT22;4943;52.550;13.462;2023-05-19T04:25:57;12.00;95.30
9808;DHT22;4943;52.550;13.462;2023-05-19T04:28:27;12.10;95.30
9808;DHT22;4943;52.550;13.462;2023-05-19T04:30:55;12.20;95.30
9808;DHT22;4943;52.550;13.462;2023-05-19T04:33:24;12.30;95.30
9808;DHT22;4943;52.550;13.462;2023-05-19T04:35:54;12.30;95.20
9808;DHT22;4943;52.550;13.462;2023-05-19T04:38:25;12.40;95.30
9808;DHT22;4943;52.550;13.462;2023-05-19T04:40:55;12.40;95.20
9808;DHT22;4943;52.550;13.462;2023-05-19T04:43:27;12.50;95.20
9808;DHT22;4943;52.550;13.462;2023-05-19T04:45:55;12.50;95.10
9808;DHT22;4943;52.550;13.462;2023-05-19T04:48:23;12.50;95.20
9808;DHT22;4943;52.550;13.462;2023-05-19T04:50:53;12.50;95.20
9808;DHT22;4943;52.550;13.462;2023-05-19T04:53:21;12.60;95.30
9808;DHT22;4943;52.550;13.462;2023-05-19T04:55:52;12.70;95.30
9808;DHT22;4943;52.550;13.462;2023-05-19T04:58:20;12.80;95.30
9808;DHT22;4943;52.550;13.462;2023-05-19T05:00:51;12.80;95.30
9808;DHT22;4943;52.550;13.462;2023-05-19T05:03:21;12.90;95.30
9808;DHT22;4943;52.550;13.462;2023-05-19T05:05:49;12.90;95.20
9808;DHT22;4943;52.550;13.462;2023-05-19T05:08:18;12.90;95.20
9808;DHT22;4943;52.550;13.462;2023-05-19T05:10:49;12.90;95.20
9808;DHT22;4943;52.550;13.462;2023-05-19T05:13:21;12.90;95.20
9808;DHT22;4943;52.550;13.462;2023-05-19T05:15:50;12.90;95.10
9808;DHT22;4943;52.550;13.462;2023-05-19T05:18:19;12.80;95.10
9808;DHT22;4943;52.550;13.462;2023-05-19T05:20:48;12.80;95.20
9808;DHT22;4943;52.550;13.462;2023-05-19T05:23:16;12.80;95.30
9808;DHT22;4943;52.550;13.462;2023-05-19T05:25:46;12.90;95.30
9808;DHT22;4943;52.550;13.462;2023-05-19T05:28:14;12.80;95.20
9808;DHT22;4943;52.550;13.462;2023-05-19T05:30:44;12.90;95.30
9808;DHT22;4943;52.550;13.462;2023-05-19T05:33:12;12.90;95.30
9808;DHT22;4943;52.550;13.462;2023-05-19T05:35:40;12.90;95.30
9808;DHT22;4943;52.550;13.462;2023-05-19T05:38:08;13.00;95.40
9808;DHT22;4943;52.550;13.462;2023-05-19T05:40:37;13.00;95.40
9808;DHT22;4943;52.550;13.462;2023-05-19T05:43:05;13.10;95.40
9808;DHT22;4943;52.550;13.462;2023-05-19T05:45:33;13.10;95.50
9808;DHT22;4943;52.550;13.462;2023-05-19T05:48:03;13.20;95.60
9808;DHT22;4943;52.550;13.462;2023-05-19T05:50:32;13.30;95.50
9808;DHT22;4943;52.550;13.462;2023-05-19T05:53:00;13.40;95.50
9808;DHT22;4943;52.550;13.462;2023-05-19T05:55:30;13.40;95.50
9808;DHT22;4943;52.550;13.462;2023-05-19T05:57:59;13.50;95.50
9808;DHT22;4943;52.550;13.462;2023-05-19T06:00:27;13.60;95.60
9808;DHT22;4943;52.550;13.462;2023-05-19T06:02:56;13.80;95.60
9808;DHT22;4943;52.550;13.462;2023-05-19T06:05:26;13.90;95.60
9808;DHT22;4943;52.550;13.462;2023-05-19T06:07:54;14.10;95.60
9808;DHT22;4943;52.550;13.462;2023-05-19T06:10:22;14.20;95.50
9808;DHT22;4943;52.550;13.462;2023-05-19T06:12:50;14.30;95.40
9808;DHT22;4943;52.550;13.462;2023-05-19T06:15:18;14.30;95.40
9808;DHT22;4943;52.550;13.462;2023-05-19T06:17:46;14.40;95.20
9808;DHT22;4943;52.550;13.462;2023-05-19T06:20:14;14.30;95.10
9808;DHT22;4943;52.550;13.462;2023-05-19T06:22:44;14.40;95.20
9808;DHT22;4943;52.550;13.462;2023-05-19T06:25:12;14.40;95.10
9808;DHT22;4943;52.550;13.462;2023-05-19T06:27:40;14.30;95.00
9808;DHT22;4943;52.550;13.462;2023-05-19T06:30:09;14.30;95.10
9808;DHT22;4943;52.550;13.462;2023-05-19T06:32:38;14.30;95.10
9808;DHT22;4943;52.550;13.462;2023-05-19T06:35:06;14.20;95.20
9808;DHT22;4943;52.550;13.462;2023-05-19T06:37:35;14.20;95.20
9808;DHT22;4943;52.550;13.462;2023-05-19T06:40:05;14.20;95.30
9808;DHT22;4943;52.550;13.462;2023-05-19T06:42:33;14.30;95.40
9808;DHT22;4943;52.550;13.462;2023-05-19T06:45:02;14.40;95.40
9808;DHT22;4943;52.550;13.462;2023-05-19T06:47:30;14.40;95.30
9808;DHT22;4943;52.550;13.462;2023-05-19T06:49:58;14.40;95.40
9808;DHT22;4943;52.550;13.462;2023-05-19T06:52:26;14.40;95.40
9808;DHT22;4943;52.550;13.462;2023-05-19T06:54:54;14.50;95.50
9808;DHT22;4943;52.550;13.462;2023-05-19T06:57:23;14.50;95.50
9808;DHT22;4943;52.550;13.462;2023-05-19T06:59:51;14.60;95.60
9808;DHT22;4943;52.550;13.462;2023-05-19T07:02:19;14.60;95.80
9808;DHT22;4943;52.550;13.462;2023-05-19T07:04:47;14.70;95.90
9808;DHT22;4943;52.550;13.462;2023-05-19T07:07:17;14.80;95.90
9808;DHT22;4943;52.550;13.462;2023-05-19T07:09:45;14.90;95.90
9808;DHT22;4943;52.550;13.462;2023-05-19T07:12:13;14.90;95.80
9808;DHT22;4943;52.550;13.462;2023-05-19T07:14:42;15.00;96.10
9808;DHT22;4943;52.550;13.462;2023-05-19T07:17:10;15.00;95.70
9808;DHT22;4943;52.550;13.462;2023-05-19T07:19:38;15.00;95.70
9808;DHT22;4943;52.550;13.462;2023-05-19T07:22:06;15.10;95.80
9808;DHT22;4943;52.550;13.462;2023-05-19T07:24:34;15.20;95.80
9808;DHT22;4943;52.550;13.462;2023-05-19T07:27:02;15.30;95.90
9808;DHT22;4943;52.550;13.462;2023-05-19T07:29:30;15.40;95.70
9808;DHT22;4943;52.550;13.462;2023-05-19T07:32:00;15.40;95.50
9808;DHT22;4943;52.550;13.462;2023-05-19T07:34:28;15.40;95.30
9808;DHT22;4943;52.550;13.462;2023-05-19T07:36:56;15.50;95.40
9808;DHT22;4943;52.550;13.462;2023-05-19T07:39:24;15.60;95.50
9808;DHT22;4943;52.550;13.462;2023-05-19T07:41:55;15.70;95.50
9808;DHT22;4943;52.550;13.462;2023-05-19T07:44:23;15.80;95.60
9808;DHT22;4943;52.550;13.462;2023-05-19T07:46:52;15.90;95.50
9808;DHT22;4943;52.550;13.462;2023-05-19T07:49:22;16.10;95.60
9808;DHT22;4943;52.550;13.462;2023-05-19T07:51:50;16.30;95.40
9808;DHT22;4943;52.550;13.462;2023-05-19T07:54:18;16.40;95.20
9808;DHT22;4943;52.550;13.462;2023-05-19T07:56:46;16.40;95.00
9808;DHT22;4943;52.550;13.462;2023-05-19T07:59:14;16.50;95.10
9808;DHT22;4943;52.550;13.462;2023-05-19T08:01:43;16.60;95.00
9808;DHT22;4943;52.550;13.462;2023-05-19T08:04:11;16.60;94.70
9808;DHT22;4943;52.550;13.462;2023-05-19T08:06:41;16.70;94.70
9808;DHT22;4943;52.550;13.462;2023-05-19T08:09:10;16.60;94.10
9808;DHT22;4943;52.550;13.462;2023-05-19T08:11:38;16.60;94.10
9808;DHT22;4943;52.550;13.462;2023-05-19T08:14:06;16.50;94.10
9808;DHT22;4943;52.550;13.462;2023-05-19T08:16:34;16.50;94.20
9808;DHT22;4943;52.550;13.462;2023-05-19T08:19:02;16.50;94.20
9808;DHT22;4943;52.550;13.462;2023-05-19T08:21:32;16.60;94.30
9808;DHT22;4943;52.550;13.462;2023-05-19T08:24:02;16.70;94.30
9808;DHT22;4943;52.550;13.462;2023-05-19T08:26:31;16.80;94.50
9808;DHT22;4943;52.550;13.462;2023-05-19T08:29:02;16.90;94.70
9808;DHT22;4943;52.550;13.462;2023-05-19T08:31:30;17.00;94.30
9808;DHT22;4943;52.550;13.462;2023-05-19T08:33:58;17.00;93.80
9808;DHT22;4943;52.550;13.462;2023-05-19T08:36:26;16.90;93.30
9808;DHT22;4943;52.550;13.462;2023-05-19T08:38:55;16.90;93.50
9808;DHT22;4943;52.550;13.462;2023-05-19T08:41:24;16.90;93.50
9808;DHT22;4943;52.550;13.462;2023-05-19T08:43:52;16.80;93.00
9808;DHT22;4943;52.550;13.462;2023-05-19T08:46:21;16.80;93.00
9808;DHT22;4943;52.550;13.462;2023-05-19T08:48:55;16.80;92.90
9808;DHT22;4943;52.550;13.462;2023-05-19T08:51:32;16.90;93.00
9808;DHT22;4943;52.550;13.462;2023-05-19T08:54:10;16.90;93.20
9808;DHT22;4943;52.550;13.462;2023-05-19T08:56:42;17.00;93.00
9808;DHT22;4943;52.550;13.462;2023-05-19T08:59:11;17.00;92.90
9808;DHT22;4943;52.550;13.462;2023-05-19T09:01:41;17.10;92.90
9808;DHT22;4943;52.550;13.462;2023-05-19T09:04:12;17.20;93.10
9808;DHT22;4943;52.550;13.462;2023-05-19T09:06:40;17.30;92.80
9808;DHT22;4943;52.550;13.462;2023-05-19T09:09:11;17.40;92.70
9808;DHT22;4943;52.550;13.462;2023-05-19T09:11:39;17.50;92.60
9808;DHT22;4943;52.550;13.462;2023-05-19T09:14:08;17.60;92.80
9808;DHT22;4943;52.550;13.462;2023-05-19T09:16:37;17.70;92.80
9808;DHT22;4943;52.550;13.462;2023-05-19T09:19:12;17.80;92.50
9808;DHT22;4943;52.550;13.462;2023-05-19T09:21:41;18.00;92.60
9808;DHT22;4943;52.550;13.462;2023-05-19T09:24:11;18.10;92.40
9808;DHT22;4943;52.550;13.462;2023-05-19T09:26:41;18.20;91.50
9808;DHT22;4943;52.550;13.462;2023-05-19T09:29:14;18.20;90.60
9808;DHT22;4943;52.550;13.462;2023-05-19T09:31:52;18.20;90.90
9808;DHT22;4943;52.550;13.462;2023-05-19T09:34:21;18.30;91.00
9808;DHT22;4943;52.550;13.462;2023-05-19T09:36:51;18.30;90.90
9808;DHT22;4943;52.550;13.462;2023-05-19T09:39:21;18.40;91.40
9808;DHT22;4943;52.550;13.462;2023-05-19T09:41:51;18.70;91.70
9808;DHT22;4943;52.550;13.462;2023-05-19T09:44:24;19.00;91.80
9808;DHT22;4943;52.550;13.462;2023-05-19T09:46:55;19.30;91.60
9808;DHT22;4943;52.550;13.462;2023-05-19T09:49:25;19.60;91.30
9808;DHT22;4943;52.550;13.462;2023-05-19T09:51:55;19.70;89.80
9808;DHT22;4943;52.550;13.462;2023-05-19T09:54:25;19.60;88.60
9808;DHT22;4943;52.550;13.462;2023-05-19T09:56:58;19.50;88.30
9808;DHT22;4943;52.550;13.462;2023-05-19T09:59:29;19.30;88.70
9808;DHT22;4943;52.550;13.462;2023-05-19T10:02:00;19.20;89.00
9808;DHT22;4943;52.550;13.462;2023-05-19T10:04:29;19.20;89.30
9808;DHT22;4943;52.550;13.462;2023-05-19T10:06:58;19.30;89.20
9808;DHT22;4943;52.550;13.462;2023-05-19T10:09:27;19.40;88.60
9808;DHT22;4943;52.550;13.462;2023-05-19T10:11:56;19.40;88.30
9808;DHT22;4943;52.550;13.462;2023-05-19T10:14:25;19.50;88.80
9808;DHT22;4943;52.550;13.462;2023-05-19T10:16:56;19.50;88.30
9808;DHT22;4943;52.550;13.462;2023-05-19T10:19:26;19.40;87.20
9808;DHT22;4943;52.550;13.462;2023-05-19T10:21:55;19.30;86.80
9808;DHT22;4943;52.550;13.462;2023-05-19T10:24:23;19.20;87.30
9808;DHT22;4943;52.550;13.462;2023-05-19T10:26:54;19.30;88.30
9808;DHT22;4943;52.550;13.462;2023-05-19T10:29:27;19.40;87.80
9808;DHT22;4943;52.550;13.462;2023-05-19T10:32:01;19.50;88.30
9808;DHT22;4943;52.550;13.462;2023-05-19T10:34:58;19.70;87.70
9808;DHT22;4943;52.550;13.462;2023-05-19T10:37:36;19.80;86.20
9808;DHT22;4943;52.550;13.462;2023-05-19T10:40:10;19.70;85.30
9808;DHT22;4943;52.550;13.462;2023-05-19T10:42:48;19.60;85.50
9808;DHT22;4943;52.550;13.462;2023-05-19T10:45:21;19.60;86.70
9808;DHT22;4943;52.550;13.462;2023-05-19T10:47:53;19.70;88.00
9808;DHT22;4943;52.550;13.462;2023-05-19T10:50:21;19.80;86.90
9808;DHT22;4943;52.550;13.462;2023-05-19T10:52:52;19.80;85.40
9808;DHT22;4943;52.550;13.462;2023-05-19T10:55:45;19.90;85.60
9808;DHT22;4943;52.550;13.462;2023-05-19T10:58:14;19.90;85.60
9808;DHT22;4943;52.550;13.462;2023-05-19T11:00:42;19.90;86.00
9808;DHT22;4943;52.550;13.462;2023-05-19T11:03:15;20.00;85.30
9808;DHT22;4943;52.550;13.462;2023-05-19T11:05:44;20.10;85.60
9808;DHT22;4943;52.550;13.462;2023-05-19T11:08:15;20.30;86.20
9808;DHT22;4943;52.550;13.462;2023-05-19T11:10:44;20.40;85.60
9808;DHT22;4943;52.550;13.462;2023-05-19T11:13:19;20.60;85.20
9808;DHT22;4943;52.550;13.462;2023-05-19T11:15:48;20.60;85.10
9808;DHT22;4943;52.550;13.462;2023-05-19T11:18:18;20.60;83.60
9808;DHT22;4943;52.550;13.462;2023-05-19T11:20:54;20.40;83.20
9808;DHT22;4943;52.550;13.462;2023-05-19T11:23:24;20.30;83.40
9808;DHT22;4943;52.550;13.462;2023-05-19T11:25:52;20.20;83.50
9808;DHT22;4943;52.550;13.462;2023-05-19T11:28:22;20.30;83.50
9808;DHT22;4943;52.550;13.462;2023-05-19T11:30:53;20.30;83.00
9808;DHT22;4943;52.550;13.462;2023-05-19T11:33:25;20.30;82.10
9808;DHT22;4943;52.550;13.462;2023-05-19T11:35:55;20.40;83.20
9808;DHT22;4943;52.550;13.462;2023-05-19T11:38:25;20.50;83.40
9808;DHT22;4943;52.550;13.462;2023-05-19T11:40:54;20.60;84.40
9808;DHT22;4943;52.550;13.462;2023-05-19T11:43:23;20.90;84.50
9808;DHT22;4943;52.550;13.462;2023-05-19T11:45:52;21.10;84.20
9808;DHT22;4943;52.550;13.462;2023-05-19T11:48:22;21.30;83.10
9808;DHT22;4943;52.550;13.462;2023-05-19T11:50:51;21.40;83.20
9808;DHT22;4943;52.550;13.462;2023-05-19T11:53:20;21.50;83.10
9808;DHT22;4943;52.550;13.462;2023-05-19T11:55:48;21.70;83.20
9808;DHT22;4943;52.550;13.462;2023-05-19T11:58:17;21.80;83.40
9808;DHT22;4943;52.550;13.462;2023-05-19T12:00:45;21.90;81.30
9808;DHT22;4943;52.550;13.462;2023-05-19T12:03:13;21.90;81.30
9808;DHT22;4943;52.550;13.462;2023-05-19T12:05:44;21.90;80.60
9808;DHT22;4943;52.550;13.462;2023-05-19T12:08:15;21.80;80.40
9808;DHT22;4943;52.550;13.462;2023-05-19T12:10:46;21.70;80.40
9808;DHT22;4943;52.550;13.462;2023-05-19T12:13:15;21.60;79.90
9808;DHT22;4943;52.550;13.462;2023-05-19T12:15:43;21.60;80.10
9808;DHT22;4943;52.550;13.462;2023-05-19T12:18:11;21.60;80.00
9808;DHT22;4943;52.550;13.462;2023-05-19T12:20:39;21.60;80.40
9808;DHT22;4943;52.550;13.462;2023-05-19T12:23:08;21.70;79.60
9808;DHT22;4943;52.550;13.462;2023-05-19T12:25:37;21.60;78.50
9808;DHT22;4943;52.550;13.462;2023-05-19T12:28:06;21.60;78.50
9808;DHT22;4943;52.550;13.462;2023-05-19T12:30:34;21.60;78.80
9808;DHT22;4943;52.550;13.462;2023-05-19T12:33:02;21.70;78.20
9808;DHT22;4943;52.550;13.462;2023-05-19T12:35:31;21.80;78.50
9808;DHT22;4943;52.550;13.462;2023-05-19T12:38:02;21.90;79.00
9808;DHT22;4943;52.550;13.462;2023-05-19T12:40:32;22.00;78.80
9808;DHT22;4943;52.550;13.462;2023-05-19T12:43:02;22.10;78.30
9808;DHT22;4943;52.550;13.462;2023-05-19T12:45:33;22.00;78.10
9808;DHT22;4943;52.550;13.462;2023-05-19T12:48:02;21.80;78.10
9808;DHT22;4943;52.550;13.462;2023-05-19T12:50:32;21.70;78.70
9808;DHT22;4943;52.550;13.462;2023-05-19T12:53:01;21.60;78.10
9808;DHT22;4943;52.550;13.462;2023-05-19T12:55:29;21.50;78.10
9808;DHT22;4943;52.550;13.462;2023-05-19T12:57:57;21.50;78.90
9808;DHT22;4943;52.550;13.462;2023-05-19T13:00:27;21.50;79.10
9808;DHT22;4943;52.550;13.462;2023-05-19T13:02:59;21.50;79.20
9808;DHT22;4943;52.550;13.462;2023-05-19T13:05:29;21.50;79.10
9808;DHT22;4943;52.550;13.462;2023-05-19T13:07:58;21.60;79.20
9808;DHT22;4943;52.550;13.462;2023-05-19T13:10:28;21.60;78.50
9808;DHT22;4943;52.550;13.462;2023-05-19T13:12:58;21.60;78.80
9808;DHT22;4943;52.550;13.462;2023-05-19T13:15:29;21.50;79.00
9808;DHT22;4943;52.550;13.462;2023-05-19T13:18:01;21.50;79.30
9808;DHT22;4943;52.550;13.462;2023-05-19T13:20:29;21.60;80.90
9808;DHT22;4943;52.550;13.462;2023-05-19T13:22:58;21.80;81.20
9808;DHT22;4943;52.550;13.462;2023-05-19T13:25:26;22.00;80.10
9808;DHT22;4943;52.550;13.462;2023-05-19T13:27:54;22.00;78.90
9808;DHT22;4943;52.550;13.462;2023-05-19T13:30:25;21.80;79.30
9808;DHT22;4943;52.550;13.462;2023-05-19T13:32:54;21.90;80.30
9808;DHT22;4943;52.550;13.462;2023-05-19T13:35:22;21.80;79.40
9808;DHT22;4943;52.550;13.462;2023-05-19T13:37:50;21.70;79.30
9808;DHT22;4943;52.550;13.462;2023-05-19T13:40:18;21.60;79.50
9808;DHT22;4943;52.550;13.462;2023-05-19T13:42:47;21.50;79.50
9808;DHT22;4943;52.550;13.462;2023-05-19T13:45:15;21.30;79.60
9808;DHT22;4943;52.550;13.462;2023-05-19T13:47:44;21.30;80.10
9808;DHT22;4943;52.550;13.462;2023-05-19T13:50:13;21.30;79.20
9808;DHT22;4943;52.550;13.462;2023-05-19T13:52:41;21.20;79.60
9808;DHT22;4943;52.550;13.462;2023-05-19T13:55:09;21.20;80.20
9808;DHT22;4943;52.550;13.462;2023-05-19T13:57:37;21.30;80.10
9808;DHT22;4943;52.550;13.462;2023-05-19T14:00:09;21.40;80.70
9808;DHT22;4943;52.550;13.462;2023-05-19T14:02:37;21.50;81.30
9808;DHT22;4943;52.550;13.462;2023-05-19T14:05:06;21.50;81.10
9808;DHT22;4943;52.550;13.462;2023-05-19T14:07:35;21.50;80.70
9808;DHT22;4943;52.550;13.462;2023-05-19T14:10:04;21.50;81.10
9808;DHT22;4943;52.550;13.462;2023-05-19T14:12:34;21.40;80.60
9808;DHT22;4943;52.550;13.462;2023-05-19T14:15:13;21.20;80.30
9808;DHT22;4943;52.550;13.462;2023-05-19T14:17:41;20.90;80.50
9808;DHT22;4943;52.550;13.462;2023-05-19T14:20:10;20.70;81.10
9808;DHT22;4943;52.550;13.462;2023-05-19T14:22:39;20.60;81.80
9808;DHT22;4943;52.550;13.462;2023-05-19T14:25:08;20.70;82.40
9808;DHT22;4943;52.550;13.462;2023-05-19T14:27:36;20.80;82.10
9808;DHT22;4943;52.550;13.462;2023-05-19T14:30:07;20.90;82.40
9808;DHT22;4943;52.550;13.462;2023-05-19T14:32:35;21.10;82.30
9808;DHT22;4943;52.550;13.462;2023-05-19T14:35:04;21.20;81.30
9808;DHT22;4943;52.550;13.462;2023-05-19T14:37:32;21.30;81.20
9808;DHT22;4943;52.550;13.462;2023-05-19T14:40:01;21.30;81.40
9808;DHT22;4943;52.550;13.462;2023-05-19T14:42:30;21.50;82.30
9808;DHT22;4943;52.550;13.462;2023-05-19T14:44:58;21.60;82.10
9808;DHT22;4943;52.550;13.462;2023-05-19T14:47:26;21.70;81.50
9808;DHT22;4943;52.550;13.462;2023-05-19T14:49:54;21.70;81.50
9808;DHT22;4943;52.550;13.462;2023-05-19T14:52:22;21.80;81.10
9808;DHT22;4943;52.550;13.462;2023-05-19T14:54:52;21.90;81.10
9808;DHT22;4943;52.550;13.462;2023-05-19T14:57:21;22.00;80.90
9808;DHT22;4943;52.550;13.462;2023-05-19T14:59:49;22.00;80.40
9808;DHT22;4943;52.550;13.462;2023-05-19T15:02:17;21.90;79.80
9808;DHT22;4943;52.550;13.462;2023-05-19T15:04:45;21.80;79.70
9808;DHT22;4943;52.550;13.462;2023-05-19T15:07:13;21.60;79.70
9808;DHT22;4943;52.550;13.462;2023-05-19T15:09:42;21.50;79.30
9808;DHT22;4943;52.550;13.462;2023-05-19T15:12:10;21.30;79.80
9808;DHT22;4943;52.550;13.462;2023-05-19T15:14:39;21.20;79.70
9808;DHT22;4943;52.550;13.462;2023-05-19T15:17:07;21.00;80.00
9808;DHT22;4943;52.550;13.462;2023-05-19T15:19:36;21.00;80.40
9808;DHT22;4943;52.550;13.462;2023-05-19T15:22:04;21.00;80.20
9808;DHT22;4943;52.550;13.462;2023-05-19T15:24:32;21.00;80.40
9808;DHT22;4943;52.550;13.462;2023-05-19T15:27:00;21.10;80.40
9808;DHT22;4943;52.550;13.462;2023-05-19T15:29:28;21.20;80.80
9808;DHT22;4943;52.550;13.462;2023-05-19T15:31:58;21.30;81.40
9808;DHT22;4943;52.550;13.462;2023-05-19T15:34:26;21.50;80.60
9808;DHT22;4943;52.550;13.462;2023-05-19T15:36:54;21.50;79.70
9808;DHT22;4943;52.550;13.462;2023-05-19T15:39:22;21.50;79.00
9808;DHT22;4943;52.550;13.462;2023-05-19T15:41:50;21.30;79.30
9808;DHT22;4943;52.550;13.462;2023-05-19T15:44:18;21.10;79.40
9808;DHT22;4943;52.550;13.462;2023-05-19T15:46:46;21.00;80.00
9808;DHT22;4943;52.550;13.462;2023-05-19T15:49:15;21.10;80.40
9808;DHT22;4943;52.550;13.462;2023-05-19T15:51:44;21.30;80.30
9808;DHT22;4943;52.550;13.462;2023-05-19T15:54:12;21.50;80.90
9808;DHT22;4943;52.550;13.462;2023-05-19T15:56:40;21.70;80.30
9808;DHT22;4943;52.550;13.462;2023-05-19T15:59:08;21.80;80.10